Borzja, Russia
Current Conditions -  °F | °C
As of 5:00 PM on Sunday 26 Oct 2014 (Local Time) from UIAA Reporting Station
Broken Clouds Broken Clouds  
Wind Chill: 19°   Ceiling: 20000
Heat Index: 25°   Visibility: 6mi
Dew Point: -2°   Wind: 4mph
Humidity: 31%   Direction: NA
Pressure: 30.42"   Gusts: NA
Location:  50.38°N, 116.52°E
Report Text: UIAA 260800Z VRB02MPS 9999 SCT100 BKN200 M04/M19 Q1030 NOSIGRMK QFE713 29CLRD70
Loading
Personal Weather Stations






























Interactive Weather Map
Tropical Storm Tracking
New forecast layout! Learn more

10-Day Weather Forecast

Advertisements
Track Severe Weather on mobile